• Join FlightAware (Why Join?)
  • Login
  • US Flag 
08:06AM EST


 

Airport Tracker/Info


-or-


 

Live Flight TrackerFlight Track Log ✈ FSR411 ✈ 17-Jun-2013 ✈ KAIZ - KCMI

Flight Track Log - Related Links

Times and Time Zones

All times are in EDT time to prevent confusion due to time zone crossing. See the FSR411 flight status page for this flight to view local times or setup timezone preferences in your user account.

Time Position Orientation Groundspeed Altitude Reporting Facility
EDT Latitude Longitude Course Direction KTS MPH feet Rate Location/Type
11:04PM 38.1586 -92.4461 56° Northeast 230 265 6,200  Level Kansas City Center
11:05PM 38.1953 -92.3678 59° Northeast 248 285 9,900 3,480 Climbing Kansas City Center
11:06PM 38.2403 -92.2769 58° Northeast 294 338 13,300 3,420 Climbing Kansas City Center
11:07PM 38.2914 -92.1706 59° Northeast 336 387 17,000 2,820 Climbing Kansas City Center
11:08PM 38.3428 -92.0617 59° Northeast 351 404 19,200 2,040 Climbing Kansas City Center
11:09PM 38.3967 -91.9475 59° Northeast 366 421 21,200 1,680 Climbing Kansas City Center
11:10PM 38.4561 -91.8267 58° Northeast 384 442 22,700 840 Climbing Kansas City Center
11:11PM 38.5208 -91.6869 59° Northeast 428 493 23,000 120 Climbing Kansas City Center
11:12PM 38.5889 -91.5414 59° Northeast 456 525 23,000  Level Kansas City Center
11:13PM 38.6567 -91.3964 59° Northeast 469 540 23,000  Level Kansas City Center
11:14PM 38.7206 -91.2611 59° Northeast 458 527 23,000  Level Kansas City Center
11:15PM 38.7328 -91.1142 84° East 449 517 23,000  Level Kansas City Center
11:16PM 38.7153 -90.9650 99° East 451 519 23,000  Level Kansas City Center
11:17PM 38.7750 -90.8228 62° Northeast 451 519 23,000  Level Kansas City Center
11:19PM 38.8575 -90.6694 55° Northeast 439 505 23,000  Level Kansas City Center
11:20PM 38.9206 -90.5458 57° Northeast 426 490 23,000 -300 Level Kansas City Center
11:21PM 38.9861 -90.4189 56° Northeast 421 484 22,400 -900 Descending Kansas City Center
11:22PM 39.0478 -90.2969 57° Northeast 410 472 21,200 -720 Descending Kansas City Center
11:23PM 39.1064 -90.1800 57° Northeast 394 453 21,000 -120 Descending Kansas City Center
11:24PM 39.1658 -90.0631 57° Northeast 390 449 21,000  Level Kansas City Center
11:25PM 39.2239 -89.9472 57° Northeast 387 445 21,000  Level Kansas City Center
11:26PM 39.2814 -89.8322 57° Northeast 384 442 21,000  Level Kansas City Center
11:27PM 39.3400 -89.7167 57° Northeast 383 441 21,000 -300 Level Kansas City Center
11:28PM 39.3986 -89.5978 57° Northeast 389 448 20,500 -1,020 Descending Kansas City Center
11:29PM 39.4556 -89.4811 58° Northeast 387 445 19,000 -1,500 Descending Kansas City Center
11:30PM 39.5100 -89.3714 57° Northeast 372 428 17,500 -1,620 Descending Kansas City Center
11:31PM 39.5694 -89.2511 57° Northeast 364 419 15,800 -1,620 Descending Kansas City Center
11:32PM 39.6197 -89.1475 58° Northeast 349 402 14,300 -1,500 Descending Kansas City Center
11:33PM 39.6692 -89.0483 57° Northeast 336 387 12,800 -1,560 Descending Kansas City Center
11:34PM 39.7178 -88.9492 57° Northeast 329 379 11,200 -1,560 Descending Kansas City Center
11:35PM 39.7758 -88.8672 47° Northeast 313 360 9,700 -1,500 Descending Kansas City Center
11:36PM 39.8272 -88.7956 47° Northeast 283 326 8,200 -1,680 Descending Kansas City Center
11:37PM 39.8844 -88.7106 49° Northeast 272 313 6,300 -1,680 Descending Chicago Center
11:38PM 39.9358 -88.6364 48° Northeast 272 313 4,800 -1,380 Descending Chicago Center
11:39PM 39.9864 -88.5631 48° Northeast 273 314 3,500 -900 Descending Chicago Center
11:40PM 40.0358 -88.4944 47° Northeast 268 308 3,000 -300 Descending Chicago Center
11:41PM 40.0708 -88.4394 50° Northeast 232 267 3,000 -300 Level Chicago Center
11:42PM 40.0942 -88.3872 60° Northeast 175 201 2,500 -600 Descending Chicago Center
11:43PM 40.0967 -88.3225 87° East 168 193 1,900 -600 Descending Chicago Center
11:44PM 40.0633 -88.2906 144° Southeast 155 178 1,400 -540 Descending Chicago Center